Time;durP1;ratioP1;P1;durP2;ratioP2;P2;SDS_P1;SDS_P2;PMS_P1;PMS_P2;Temp;Humidity;BMP_temperature;BMP_pressure;BME280_temperature;BME280_humidity;BME280_pressure;Samples;Min_cycle;Max_cycle;Signal;HPM_P1;HPM_P2
2021/04/09 00:00:32;;;;;;;7.20;5.83;;;3.00;99.90;;;;;;4975448;28;20498;-65
2021/04/09 00:02:59;;;;;;;6.70;5.90;;;3.10;99.90;;;;;;4975087;28;20549;-65
2021/04/09 00:05:26;;;;;;;11.67;6.33;;;3.10;99.90;;;;;;4975864;28;20450;-65
2021/04/09 00:07:52;;;;;;;7.30;6.57;;;3.20;99.90;;;;;;4975305;28;20490;-64
2021/04/09 00:10:21;;;;;;;9.27;6.07;;;3.10;99.90;;;;;;4975332;28;20614;-65
2021/04/09 00:12:47;;;;;;;7.30;6.30;;;3.10;99.90;;;;;;4979265;28;21028;-64
2021/04/09 00:15:13;;;;;;;7.60;6.80;;;3.10;99.90;;;;;;4981031;28;20454;-64
2021/04/09 00:17:41;;;;;;;7.60;6.80;;;3.10;99.90;;;;;;4983156;28;20451;-64
2021/04/09 00:20:12;;;;;;;9.50;6.57;;;3.10;99.90;;;;;;4982308;28;20827;-65
2021/04/09 00:22:38;;;;;;;12.30;6.83;;;3.10;99.90;;;;;;4981171;28;20494;-65
2021/04/09 00:25:06;;;;;;;9.10;7.10;;;3.00;99.90;;;;;;4981857;28;20458;-65
2021/04/09 00:27:33;;;;;;;9.70;7.93;;;3.00;99.90;;;;;;4985138;28;20481;-65
2021/04/09 00:29:59;;;;;;;7.80;7.00;;;3.00;99.90;;;;;;4995477;28;20451;-65
2021/04/09 00:32:25;;;;;;;7.67;6.83;;;3.10;99.90;;;;;;4996214;28;20467;-65
2021/04/09 00:34:52;;;;;;;8.57;6.70;;;3.10;99.90;;;;;;4996012;28;20461;-65
2021/04/09 00:37:19;;;;;;;10.30;7.80;;;3.10;99.90;;;;;;4979832;28;20454;-65
2021/04/09 00:39:45;;;;;;;8.80;7.83;;;3.00;99.90;;;;;;4987655;28;20466;-65
2021/04/09 00:42:16;;;;;;;8.37;7.50;;;3.00;99.90;;;;;;4991647;28;20458;-65
2021/04/09 00:44:43;;;;;;;11.07;8.23;;;3.00;99.90;;;;;;4985013;28;20843;-65
2021/04/09 00:47:10;;;;;;;10.10;7.90;;;2.90;99.90;;;;;;4976227;28;20478;-65
2021/04/09 00:49:36;;;;;;;9.80;8.30;;;2.80;99.90;;;;;;4978267;28;20458;-64
2021/04/09 00:52:03;;;;;;;16.30;9.80;;;2.80;99.90;;;;;;4975668;28;20478;-64
2021/04/09 00:54:30;;;;;;;9.67;8.67;;;2.80;99.90;;;;;;4974714;28;20462;-64
2021/04/09 00:56:57;;;;;;;9.53;7.73;;;2.70;99.90;;;;;;4974637;28;20454;-65
2021/04/09 00:59:25;;;;;;;9.50;8.30;;;2.70;99.90;;;;;;4974674;28;20517;-64
2021/04/09 01:01:51;;;;;;;12.27;8.90;;;2.60;99.90;;;;;;4974246;28;20505;-64
2021/04/09 01:04:17;;;;;;;11.03;8.80;;;2.50;99.90;;;;;;4974195;28;20565;-64
2021/04/09 01:06:44;;;;;;;11.90;8.63;;;2.50;99.90;;;;;;4974042;28;20839;-65
2021/04/09 01:09:10;;;;;;;11.77;9.10;;;2.40;99.90;;;;;;4974361;28;20459;-65
2021/04/09 01:11:37;;;;;;;11.13;9.60;;;2.30;99.90;;;;;;4974495;28;20474;-64
2021/04/09 01:14:03;;;;;;;13.40;9.23;;;2.30;99.90;;;;;;4974352;28;20466;-65
2021/04/09 01:16:38;;;;;;;10.90;8.50;;;2.30;99.90;;;;;;4974416;28;20439;-65
2021/04/09 01:19:17;;;;;;;12.57;9.47;;;2.20;99.90;;;;;;4974297;28;20457;-65
2021/04/09 01:21:50;;;;;;;11.10;9.17;;;2.20;99.90;;;;;;4974252;28;20486;-65
2021/04/09 01:24:52;;;;;;;10.27;9.00;;;2.20;99.90;;;;;;4974112;28;20920;-65
2021/04/09 01:27:54;;;;;;;11.27;8.70;;;2.20;99.90;;;;;;4974283;28;20463;-64
2021/04/09 01:30:57;;;;;;;14.33;8.60;;;2.20;99.90;;;;;;4974054;28;20450;-64
2021/04/09 01:33:29;;;;;;;12.63;8.60;;;2.20;99.90;;;;;;4976192;28;20450;-65
2021/04/09 01:35:59;;;;;;;13.90;10.23;;;2.20;99.90;;;;;;4978068;28;20442;-64
2021/04/09 01:38:30;;;;;;;12.70;9.40;;;2.10;99.90;;;;;;4978259;28;20445;-65
2021/04/09 01:40:57;;;;;;;15.13;10.13;;;2.20;99.90;;;;;;4977969;28;20443;-65
2021/04/09 01:43:24;;;;;;;10.90;8.13;;;2.20;99.90;;;;;;4977872;28;20454;-65
2021/04/09 01:45:52;;;;;;;10.97;8.77;;;2.20;99.90;;;;;;4977781;28;20458;-65
2021/04/09 01:48:21;;;;;;;14.60;9.40;;;2.30;99.90;;;;;;4977686;28;20824;-65
2021/04/09 01:50:49;;;;;;;14.73;10.80;;;2.40;99.90;;;;;;4977553;28;20454;-65
2021/04/09 01:53:17;;;;;;;10.60;8.20;;;2.40;99.90;;;;;;4977613;28;20466;-64
2021/04/09 01:55:48;;;;;;;15.43;9.67;;;2.50;99.90;;;;;;4977142;28;20509;-63
2021/04/09 01:58:16;;;;;;;15.63;10.20;;;2.60;99.90;;;;;;4977601;28;20501;-64
2021/04/09 02:00:42;;;;;;;11.10;8.23;;;2.60;99.90;;;;;;4977366;28;20501;-63
2021/04/09 02:03:10;;;;;;;10.73;8.80;;;2.60;99.90;;;;;;4977647;28;20439;-66
2021/04/09 02:05:37;;;;;;;10.87;9.03;;;2.60;99.90;;;;;;4977383;28;20458;-64
2021/04/09 02:08:09;;;;;;;10.57;9.10;;;2.70;99.90;;;;;;4977419;28;20478;-64
2021/04/09 02:10:36;;;;;;;16.10;9.73;;;2.70;99.90;;;;;;4977513;28;20474;-64
2021/04/09 02:13:02;;;;;;;13.70;9.50;;;2.80;99.90;;;;;;4977574;28;20832;-63
2021/04/09 02:15:29;;;;;;;11.23;8.70;;;2.80;99.90;;;;;;4977307;28;20459;-64
2021/04/09 02:17:56;;;;;;;10.13;8.57;;;2.70;99.90;;;;;;4981133;28;20477;-64
2021/04/09 02:20:23;;;;;;;11.37;9.87;;;2.70;99.90;;;;;;4979157;28;20513;-64
2021/04/09 02:22:51;;;;;;;12.40;9.57;;;2.70;99.90;;;;;;4977217;28;20475;-64
2021/04/09 02:25:20;;;;;;;12.63;9.30;;;2.80;99.90;;;;;;4977266;28;20454;-63
2021/04/09 02:27:49;;;;;;;9.87;8.87;;;2.80;99.90;;;;;;4976778;28;21063;-64
2021/04/09 02:30:17;;;;;;;10.30;9.03;;;2.80;99.90;;;;;;4977016;28;20463;-65
2021/04/09 02:32:43;;;;;;;10.97;8.90;;;2.80;99.90;;;;;;4977100;28;20505;-65
2021/04/09 02:35:12;;;;;;;11.97;9.53;;;2.70;99.90;;;;;;4976838;28;20459;-64
2021/04/09 02:37:41;;;;;;;13.03;10.10;;;2.60;99.90;;;;;;4976859;28;20454;-65
2021/04/09 02:40:14;;;;;;;14.07;10.77;;;2.70;99.90;;;;;;4976503;28;20459;-66
2021/04/09 02:42:45;;;;;;;11.53;9.67;;;2.60;99.90;;;;;;4976804;28;20485;-65
2021/04/09 02:45:13;;;;;;;12.47;9.50;;;2.50;99.90;;;;;;4976565;28;20443;-65
2021/04/09 02:47:40;;;;;;;11.10;9.53;;;2.30;99.90;;;;;;4976765;28;20839;-65
2021/04/09 02:50:12;;;;;;;13.07;8.97;;;2.30;99.90;;;;;;4976805;28;20462;-64
2021/04/09 02:52:43;;;;;;;13.23;9.10;;;2.40;99.90;;;;;;4976575;28;20478;-63
2021/04/09 02:55:14;;;;;;;9.60;8.60;;;2.40;99.90;;;;;;4976583;28;20439;-63
2021/04/09 02:57:42;;;;;;;12.37;8.90;;;2.30;99.90;;;;;;4976280;28;20929;-65
2021/04/09 03:00:09;;;;;;;9.27;8.10;;;2.30;99.90;;;;;;4976477;28;20529;-65
2021/04/09 03:02:38;;;;;;;10.90;8.10;;;2.20;99.90;;;;;;4975698;28;20482;-65
2021/04/09 03:05:06;;;;;;;12.20;8.50;;;2.30;99.90;;;;;;4976402;28;20466;-65
2021/04/09 03:07:33;;;;;;;11.17;8.07;;;2.20;99.90;;;;;;4976283;28;20479;-63
2021/04/09 03:10:00;;;;;;;10.07;7.97;;;2.10;99.90;;;;;;4975954;28;20953;-65
2021/04/09 03:12:28;;;;;;;10.23;8.40;;;2.00;99.90;;;;;;4976062;28;20842;-65
2021/04/09 03:14:56;;;;;;;8.17;6.93;;;2.00;99.90;;;;;;4976137;28;20509;-64
2021/04/09 03:17:27;;;;;;;11.50;8.03;;;2.00;99.90;;;;;;4975806;28;20446;-65
2021/04/09 03:19:54;;;;;;;8.40;6.70;;;2.00;99.90;;;;;;4976093;28;20442;-64
2021/04/09 03:22:20;;;;;;;8.57;7.57;;;1.90;99.90;;;;;;4975854;28;20485;-65
2021/04/09 03:24:47;;;;;;;9.70;6.80;;;1.90;99.90;;;;;;4976024;28;20459;-65
2021/04/09 03:27:15;;;;;;;7.87;7.07;;;1.80;99.90;;;;;;4975665;28;20822;-65
2021/04/09 03:29:41;;;;;;;10.93;6.83;;;1.80;99.90;;;;;;4975632;28;20494;-65
2021/04/09 03:32:08;;;;;;;10.07;7.17;;;1.80;99.90;;;;;;4975812;28;20479;-65
2021/04/09 03:34:34;;;;;;;8.70;7.27;;;1.80;99.90;;;;;;4975882;28;20462;-65
2021/04/09 03:37:01;;;;;;;8.10;6.90;;;1.70;99.90;;;;;;4975405;28;20516;-65
2021/04/09 03:39:27;;;;;;;8.80;6.63;;;1.70;99.90;;;;;;4975906;28;20455;-65
2021/04/09 03:41:53;;;;;;;8.30;6.90;;;1.80;99.90;;;;;;4975774;28;20479;-65
2021/04/09 03:44:19;;;;;;;9.00;7.00;;;1.80;99.90;;;;;;4975675;28;20451;-65
2021/04/09 03:46:46;;;;;;;8.77;6.10;;;1.80;99.90;;;;;;4976121;28;20827;-65
2021/04/09 03:49:13;;;;;;;8.00;7.20;;;1.80;99.90;;;;;;4976732;28;20466;-65
2021/04/09 03:51:39;;;;;;;8.03;7.23;;;1.80;99.90;;;;;;4975656;28;20478;-65
2021/04/09 03:54:05;;;;;;;8.90;7.07;;;1.70;99.90;;;;;;4975838;28;20482;-65
2021/04/09 03:56:32;;;;;;;7.27;6.57;;;1.80;99.90;;;;;;4975033;28;20818;-65
2021/04/09 03:58:58;;;;;;;7.70;6.90;;;1.80;99.90;;;;;;4975376;28;20469;-65
2021/04/09 04:01:26;;;;;;;8.63;7.50;;;1.80;99.90;;;;;;4975176;28;20482;-64
2021/04/09 04:03:52;;;;;;;8.30;7.37;;;1.80;99.90;;;;;;4975459;28;20459;-65
2021/04/09 04:06:19;;;;;;;7.93;7.13;;;1.80;99.90;;;;;;4975735;28;20510;-65
2021/04/09 04:08:46;;;;;;;9.73;6.67;;;1.80;99.90;;;;;;4978243;28;20455;-65
2021/04/09 04:11:12;;;;;;;9.50;7.70;;;1.70;99.90;;;;;;4976680;28;20506;-64
2021/04/09 04:13:39;;;;;;;8.30;7.43;;;1.80;99.90;;;;;;4975333;28;20504;-64
2021/04/09 04:16:06;;;;;;;9.10;7.47;;;1.70;99.90;;;;;;4975215;28;20474;-64
2021/04/09 04:18:32;;;;;;;9.57;7.33;;;1.60;99.90;;;;;;4975515;28;20465;-66
2021/04/09 04:21:00;;;;;;;11.10;7.80;;;1.60;99.90;;;;;;4975536;28;20515;-65
2021/04/09 04:23:27;;;;;;;7.70;6.47;;;1.50;99.90;;;;;;4975601;28;20461;-64
2021/04/09 04:25:53;;;;;;;13.27;7.80;;;1.50;99.90;;;;;;4975864;28;20454;-64
2021/04/09 04:28:20;;;;;;;15.03;7.47;;;1.50;99.90;;;;;;4975573;28;20486;-64
2021/04/09 04:30:50;;;;;;;9.83;7.10;;;1.40;99.90;;;;;;4975504;28;20454;-64
2021/04/09 04:33:17;;;;;;;8.53;7.30;;;1.40;99.90;;;;;;4976025;28;20902;-65
2021/04/09 04:35:44;;;;;;;8.20;7.30;;;1.40;99.90;;;;;;4976008;28;20464;-64
2021/04/09 04:38:10;;;;;;;10.40;7.73;;;1.40;99.90;;;;;;4976048;28;20450;-65
2021/04/09 04:40:37;;;;;;;9.10;7.47;;;1.40;99.90;;;;;;4975143;28;20454;-65
2021/04/09 04:43:04;;;;;;;11.97;7.17;;;1.40;99.90;;;;;;4975743;28;20482;-65
2021/04/09 04:45:30;;;;;;;10.17;7.13;;;1.40;99.90;;;;;;4975429;28;20459;-65
2021/04/09 04:47:57;;;;;;;9.50;7.13;;;1.30;99.90;;;;;;4975194;28;20474;-65
2021/04/09 04:50:23;;;;;;;8.70;7.07;;;1.40;99.90;;;;;;4975491;28;20464;-65
2021/04/09 04:52:50;;;;;;;10.67;7.60;;;1.40;99.90;;;;;;4975069;28;20486;-64
2021/04/09 04:55:16;;;;;;;10.53;6.93;;;1.30;99.90;;;;;;4974653;28;20464;-66
2021/04/09 04:57:43;;;;;;;10.30;7.50;;;1.30;99.90;;;;;;4974925;28;20868;-66
2021/04/09 05:00:10;;;;;;;7.57;6.40;;;1.30;99.90;;;;;;4974913;28;20454;-66
2021/04/09 05:02:36;;;;;;;11.97;8.37;;;1.40;99.90;;;;;;4974424;28;20895;-65
2021/04/09 05:05:04;;;;;;;12.13;8.23;;;1.40;99.90;;;;;;4975207;28;20459;-66
2021/04/09 05:07:30;;;;;;;8.67;7.63;;;1.40;99.90;;;;;;4977238;28;20509;-65
2021/04/09 05:09:57;;;;;;;9.03;8.17;;;1.50;99.90;;;;;;4979228;28;20461;-66
2021/04/09 05:12:23;;;;;;;11.40;8.13;;;1.50;99.90;;;;;;4979016;28;20482;-66
2021/04/09 05:14:51;;;;;;;11.63;7.70;;;1.60;99.90;;;;;;4978953;28;20459;-65
2021/04/09 05:17:18;;;;;;;8.27;6.93;;;1.70;99.90;;;;;;4978630;28;21028;-66
2021/04/09 05:19:44;;;;;;;8.00;7.20;;;1.60;99.90;;;;;;4978900;28;20465;-66
2021/04/09 05:22:10;;;;;;;9.17;6.97;;;1.70;99.90;;;;;;4978610;28;20478;-66
2021/04/09 05:24:36;;;;;;;9.33;7.40;;;1.80;99.90;;;;;;4978669;28;20454;-66
2021/04/09 05:27:03;;;;;;;10.73;7.80;;;1.90;99.90;;;;;;4978386;28;20501;-66
2021/04/09 05:29:30;;;;;;;9.10;6.43;;;1.90;99.90;;;;;;4978744;28;20501;-66
2021/04/09 05:31:57;;;;;;;14.37;7.57;;;1.90;99.90;;;;;;4978702;28;20478;-66
2021/04/09 05:34:23;;;;;;;9.87;8.27;;;2.00;99.90;;;;;;4978938;28;20458;-66
2021/04/09 05:36:49;;;;;;;17.60;9.07;;;2.10;99.90;;;;;;4978043;28;20453;-66
2021/04/09 05:39:16;;;;;;;12.20;7.30;;;2.30;99.90;;;;;;4978504;28;20455;-65
2021/04/09 05:41:42;;;;;;;8.67;6.97;;;2.40;99.90;;;;;;4978070;28;20841;-66
2021/04/09 05:44:08;;;;;;;8.40;7.60;;;2.60;99.90;;;;;;4978182;28;20459;-65
2021/04/09 05:46:34;;;;;;;8.70;7.67;;;2.70;99.90;;;;;;4977987;28;20482;-66
2021/04/09 05:49:01;;;;;;;7.83;6.80;;;2.70;99.90;;;;;;4978454;28;20438;-65
2021/04/09 05:51:28;;;;;;;9.93;8.07;;;2.80;99.90;;;;;;4978450;28;20528;-65
2021/04/09 05:53:54;;;;;;;14.53;8.13;;;2.90;99.90;;;;;;4978840;28;20454;-64
2021/04/09 05:56:20;;;;;;;17.40;7.40;;;3.00;99.90;;;;;;4978409;28;20461;-65
2021/04/09 05:58:46;;;;;;;11.60;7.90;;;3.30;99.90;;;;;;4977730;28;20458;-65
2021/04/09 06:01:13;;;;;;;12.50;8.10;;;3.40;99.90;;;;;;4977723;28;20855;-68
2021/04/09 06:03:39;;;;;;;15.33;7.77;;;3.60;99.90;;;;;;4977904;28;20442;-65
2021/04/09 06:06:06;;;;;;;13.10;7.37;;;3.90;99.90;;;;;;4978067;28;20459;-65
2021/04/09 06:08:32;;;;;;;10.97;6.93;;;4.20;99.90;;;;;;4977637;28;20454;-65
2021/04/09 06:10:58;;;;;;;11.43;7.00;;;4.60;99.90;;;;;;4977857;28;20454;-65
2021/04/09 06:13:25;;;;;;;10.63;6.80;;;5.00;99.90;;;;;;4978187;28;20860;-67
2021/04/09 06:15:51;;;;;;;10.90;7.10;;;5.20;99.90;;;;;;4977693;28;20949;-65
2021/04/09 06:18:17;;;;;;;7.73;6.60;;;5.50;99.90;;;;;;4977800;28;20506;-66
2021/04/09 06:20:43;;;;;;;11.70;6.70;;;5.80;99.90;;;;;;4977768;28;20459;-64
2021/04/09 06:23:10;;;;;;;8.27;6.73;;;6.30;99.90;;;;;;4978135;28;20474;-65
2021/04/09 06:25:36;;;;;;;10.03;7.40;;;6.70;99.90;;;;;;4977792;28;20456;-65
2021/04/09 06:28:03;;;;;;;7.77;6.17;;;7.00;99.90;;;;;;4978042;28;20486;-66
2021/04/09 06:30:29;;;;;;;13.43;7.33;;;7.40;99.90;;;;;;4977262;28;20458;-65
2021/04/09 06:32:55;;;;;;;7.40;6.53;;;7.80;99.90;;;;;;4977660;28;20525;-65
2021/04/09 06:35:22;;;;;;;9.37;8.00;;;7.90;99.90;;;;;;4977604;28;20822;-65
2021/04/09 06:37:48;;;;;;;8.43;6.80;;;8.20;99.70;;;;;;4977270;28;20803;-65
2021/04/09 06:40:15;;;;;;;9.30;7.50;;;8.40;98.80;;;;;;4977424;28;20458;-66
2021/04/09 06:42:42;;;;;;;9.30;7.23;;;8.30;99.40;;;;;;4977370;28;20486;-65
2021/04/09 06:45:11;;;;;;;8.77;7.87;;;8.60;98.50;;;;;;4977828;28;20491;-64
2021/04/09 06:47:37;;;;;;;8.37;7.47;;;8.80;97.20;;;;;;4977442;28;20479;-65
2021/04/09 06:50:04;;;;;;;13.03;8.20;;;9.20;96.40;;;;;;4977366;28;20455;-65
2021/04/09 06:52:31;;;;;;;13.60;7.63;;;9.40;95.40;;;;;;4977041;28;20474;-66
2021/04/09 06:55:00;;;;;;;17.00;7.60;;;9.40;94.20;;;;;;4977286;28;20458;-66
2021/04/09 06:57:28;;;;;;;8.50;7.20;;;9.30;94.20;;;;;;4977259;28;20513;-65
2021/04/09 06:59:58;;;;;;;14.90;7.30;;;9.90;94.10;;;;;;4977520;28;20458;-65
2021/04/09 07:02:25;;;;;;;9.17;6.90;;;10.20;92.70;;;;;;4976811;28;20523;-65
2021/04/09 07:04:51;;;;;;;10.93;7.77;;;10.40;92.00;;;;;;4977172;28;20458;-66
2021/04/09 07:07:18;;;;;;;8.63;7.70;;;10.80;91.90;;;;;;4977120;28;20478;-67
2021/04/09 07:09:45;;;;;;;9.30;7.93;;;11.00;91.00;;;;;;4977133;28;20862;-66
2021/04/09 07:12:22;;;;;;;10.80;8.00;;;11.20;88.90;;;;;;4977447;28;20486;-65
2021/04/09 07:14:54;;;;;;;9.07;7.40;;;11.00;88.90;;;;;;4977222;28;20458;-65
2021/04/09 07:17:27;;;;;;;12.20;8.20;;;10.80;89.80;;;;;;4976888;28;20450;-68
2021/04/09 07:20:17;;;;;;;8.83;6.87;;;10.80;90.00;;;;;;4976984;28;20512;-66
2021/04/09 07:22:44;;;;;;;9.73;8.00;;;11.10;89.30;;;;;;4977134;28;20832;-66
2021/04/09 07:25:13;;;;;;;9.37;8.27;;;11.20;88.80;;;;;;4976783;28;20454;-65
2021/04/09 07:27:41;;;;;;;9.87;8.23;;;11.30;87.00;;;;;;4976338;28;21004;-65
2021/04/09 07:30:10;;;;;;;8.87;7.97;;;11.00;88.60;;;;;;4976025;28;20458;-65
2021/04/09 07:32:37;;;;;;;14.50;7.50;;;11.00;87.70;;;;;;4976692;28;20478;-66
2021/04/09 07:35:11;;;;;;;9.83;8.13;;;11.00;88.60;;;;;;4976471;28;20447;-66
2021/04/09 07:37:53;;;;;;;10.30;8.20;;;11.50;88.20;;;;;;4976253;28;20902;-65
2021/04/09 07:40:22;;;;;;;9.20;7.60;;;12.20;87.80;;;;;;4976950;28;20549;-65
2021/04/09 07:42:48;;;;;;;9.00;8.10;;;12.60;85.80;;;;;;4976309;28;21012;-66
2021/04/09 07:45:18;;;;;;;8.70;7.80;;;12.90;82.70;;;;;;4976610;28;20458;-66
2021/04/09 07:47:55;;;;;;;11.50;8.30;;;13.10;80.50;;;;;;4976651;28;20481;-66
2021/04/09 07:50:32;;;;;;;8.70;7.23;;;12.80;77.60;;;;;;4976124;28;20850;-66
2021/04/09 07:52:58;;;;;;;10.43;7.50;;;12.70;77.60;;;;;;4976879;28;20481;-65
2021/04/09 07:55:29;;;;;;;8.13;7.43;;;12.60;77.60;;;;;;4983228;28;20451;-65
2021/04/09 07:57:55;;;;;;;8.50;6.53;;;12.70;77.40;;;;;;4984103;28;20439;-65
2021/04/09 08:00:24;;;;;;;7.20;6.50;;;12.80;76.00;;;;;;4982868;28;20465;-66
2021/04/09 08:02:52;;;;;;;9.40;7.20;;;13.00;75.30;;;;;;4982594;28;20483;-66
2021/04/09 08:05:21;;;;;;;7.00;6.50;;;13.70;74.80;;;;;;4979988;28;20541;-67
2021/04/09 08:07:47;;;;;;;7.50;6.90;;;14.40;74.80;;;;;;4976459;28;20479;-67
2021/04/09 08:10:15;;;;;;;9.93;6.90;;;14.90;70.00;;;;;;4976372;28;20479;-65
2021/04/09 08:12:43;;;;;;;10.43;7.30;;;15.20;67.00;;;;;;4976468;28;20501;-66
2021/04/09 08:15:16;;;;;;;8.63;6.83;;;14.60;65.60;;;;;;4976920;28;20593;-66
2021/04/09 08:17:44;;;;;;;10.70;8.30;;;14.80;68.70;;;;;;4975997;28;20446;-65
2021/04/09 08:20:13;;;;;;;11.40;6.70;;;14.80;67.30;;;;;;4975912;28;20455;-65
2021/04/09 08:22:40;;;;;;;8.20;6.87;;;15.00;65.80;;;;;;4975895;28;20478;-66
2021/04/09 08:25:07;;;;;;;8.10;6.53;;;15.10;66.30;;;;;;4975701;28;20481;-66
2021/04/09 08:27:34;;;;;;;12.77;6.57;;;15.00;61.00;;;;;;4975609;28;20478;-65
2021/04/09 08:30:01;;;;;;;11.80;7.80;;;15.00;61.70;;;;;;4975643;28;20443;-66
2021/04/09 08:32:27;;;;;;;8.33;6.87;;;15.50;63.30;;;;;;4975706;28;20536;-65
2021/04/09 08:34:55;;;;;;;8.50;6.50;;;15.40;60.60;;;;;;4975820;28;20439;-65
2021/04/09 08:37:21;;;;;;;7.20;6.30;;;15.20;62.00;;;;;;4975498;28;20807;-66
2021/04/09 08:39:50;;;;;;;6.60;5.93;;;15.40;61.40;;;;;;4975154;28;20977;-65
2021/04/09 08:42:16;;;;;;;7.57;6.40;;;15.40;62.60;;;;;;4975383;28;20478;-66
2021/04/09 08:44:43;;;;;;;10.20;6.50;;;15.00;60.00;;;;;;4975586;28;20439;-65
2021/04/09 08:47:11;;;;;;;9.33;6.90;;;15.20;62.00;;;;;;4975720;28;20467;-66
2021/04/09 08:49:38;;;;;;;8.80;6.60;;;15.30;60.80;;;;;;4975342;28;20946;-66
2021/04/09 08:52:06;;;;;;;6.67;5.93;;;15.10;60.90;;;;;;4974999;28;20989;-65
2021/04/09 08:54:33;;;;;;;7.10;6.40;;;14.70;59.80;;;;;;4975310;28;20461;-66
2021/04/09 08:57:00;;;;;;;6.53;5.93;;;14.20;61.60;;;;;;4975449;28;20447;-65
2021/04/09 08:59:44;;;;;;;6.63;5.97;;;13.80;60.40;;;;;;4975396;28;20466;-66
2021/04/09 09:02:15;;;;;;;6.03;5.20;;;13.40;61.70;;;;;;4974681;28;21127;-66
2021/04/09 09:04:57;;;;;;;7.33;5.87;;;13.50;63.40;;;;;;4975387;28;20486;-64
2021/04/09 09:07:53;;;;;;;8.20;5.43;;;13.70;64.20;;;;;;4975223;28;20547;-65
2021/04/09 09:10:54;;;;;;;8.63;5.57;;;13.70;62.30;;;;;;4973556;28;20800;-66
2021/04/09 09:13:31;;;;;;;8.50;5.40;;;14.00;64.40;;;;;;4974952;28;20478;-66
2021/04/09 09:16:01;;;;;;;7.93;5.77;;;14.50;62.40;;;;;;4975007;28;20446;-66
2021/04/09 09:18:48;;;;;;;6.57;5.80;;;15.20;63.80;;;;;;4975203;28;20509;-65
2021/04/09 09:21:32;;;;;;;9.10;5.50;;;15.60;59.20;;;;;;4975207;28;20533;-64
2021/04/09 09:24:01;;;;;;;7.97;6.10;;;15.40;57.10;;;;;;4975229;28;20509;-65
2021/04/09 09:26:33;;;;;;;8.77;5.63;;;15.40;58.90;;;;;;4975158;28;20553;-66
2021/04/09 09:29:17;;;;;;;9.20;5.80;;;15.40;58.20;;;;;;4975378;28;20442;-65
2021/04/09 09:31:54;;;;;;;5.93;5.30;;;15.50;58.80;;;;;;4974651;28;20533;-66
2021/04/09 09:34:47;;;;;;;6.63;5.63;;;15.50;57.50;;;;;;4975252;28;20445;-65
2021/04/09 09:37:18;;;;;;;9.30;5.80;;;15.00;56.30;;;;;;4975672;28;20442;-66
2021/04/09 09:39:52;;;;;;;7.00;5.87;;;14.90;57.40;;;;;;4975530;28;20434;-66
2021/04/09 09:42:41;;;;;;;6.90;5.40;;;15.10;57.90;;;;;;4974838;28;20501;-65
2021/04/09 09:45:09;;;;;;;7.13;6.13;;;15.20;57.50;;;;;;4975228;28;20454;-66
2021/04/09 09:47:39;;;;;;;9.10;5.40;;;15.50;58.70;;;;;;4974607;28;20573;-65
2021/04/09 09:50:27;;;;;;;6.03;5.13;;;15.50;57.10;;;;;;4974962;28;20577;-66
2021/04/09 09:53:00;;;;;;;7.87;5.00;;;15.70;57.20;;;;;;4974944;28;20514;-65
2021/04/09 09:55:31;;;;;;;10.27;4.90;;;15.80;56.50;;;;;;4978463;28;20454;-65
2021/04/09 09:58:03;;;;;;;7.03;6.00;;;15.60;56.10;;;;;;4978515;28;20434;-65
2021/04/09 10:00:34;;;;;;;6.80;5.30;;;15.60;57.00;;;;;;4978742;28;20446;-65
2021/04/09 10:03:11;;;;;;;9.53;5.47;;;15.60;56.30;;;;;;4977879;28;20486;-66
2021/04/09 10:05:40;;;;;;;6.70;5.53;;;15.40;56.00;;;;;;4977427;28;20801;-65
2021/04/09 10:08:06;;;;;;;6.47;4.63;;;15.50;55.90;;;;;;4977411;28;20474;-65
2021/04/09 10:10:39;;;;;;;3.60;3.30;;;16.10;55.10;;;;;;4977672;28;20442;-65
2021/04/09 10:13:20;;;;;;;4.03;2.87;;;16.60;51.00;;;;;;4977382;28;20478;-66
2021/04/09 10:15:47;;;;;;;3.50;2.93;;;17.10;48.00;;;;;;4977321;28;21000;-65
2021/04/09 10:18:15;;;;;;;3.73;2.90;;;17.00;48.40;;;;;;4977114;28;20457;-65
2021/04/09 10:20:41;;;;;;;3.13;2.93;;;16.80;47.40;;;;;;4977081;28;20455;-65
2021/04/09 10:23:07;;;;;;;3.50;2.77;;;16.80;48.40;;;;;;4977267;28;20461;-65
2021/04/09 10:25:35;;;;;;;3.67;3.20;;;16.50;48.60;;;;;;4976979;28;20972;-65
2021/04/09 10:28:03;;;;;;;5.10;3.50;;;16.30;48.20;;;;;;4977344;28;20478;-65
2021/04/09 10:30:32;;;;;;;8.40;3.63;;;16.20;48.90;;;;;;4977222;28;20945;-64
2021/04/09 10:32:59;;;;;;;4.80;3.03;;;16.00;48.90;;;;;;4976901;28;20533;-64
2021/04/09 10:35:26;;;;;;;3.50;3.20;;;16.20;50.20;;;;;;4977341;28;20458;-64
2021/04/09 10:38:07;;;;;;;3.57;2.80;;;16.20;49.70;;;;;;4977328;28;20455;-64
2021/04/09 10:40:34;;;;;;;4.37;3.00;;;16.10;50.60;;;;;;4977260;28;20443;-64
2021/04/09 10:43:00;;;;;;;4.00;3.63;;;16.10;50.50;;;;;;4977015;28;20486;-65
2021/04/09 10:45:27;;;;;;;3.90;3.23;;;16.00;51.50;;;;;;4976767;28;20454;-64
2021/04/09 10:47:54;;;;;;;4.30;3.20;;;15.80;49.80;;;;;;4976945;28;20467;-64
2021/04/09 10:50:21;;;;;;;3.40;3.10;;;15.40;51.20;;;;;;4977354;28;20900;-65
2021/04/09 10:52:48;;;;;;;4.20;2.63;;;15.60;53.20;;;;;;4976960;28;20533;-65
2021/04/09 10:55:14;;;;;;;2.93;2.73;;;15.70;52.40;;;;;;4976782;28;20443;-64
2021/04/09 10:57:40;;;;;;;3.73;3.30;;;16.00;53.00;;;;;;4976819;28;20447;-65
2021/04/09 11:00:08;;;;;;;4.93;3.00;;;16.30;51.90;;;;;;4976366;28;20466;-65
2021/04/09 11:02:36;;;;;;;3.30;3.10;;;16.20;50.50;;;;;;4976342;28;20557;-65
2021/04/09 11:05:05;;;;;;;3.87;3.20;;;16.10;51.20;;;;;;4976321;28;20474;-64
2021/04/09 11:07:41;;;;;;;4.73;3.30;;;16.10;50.70;;;;;;4976803;28;20876;-66
2021/04/09 11:10:09;;;;;;;3.50;2.90;;;16.10;51.10;;;;;;4977682;28;20454;-66
2021/04/09 11:12:35;;;;;;;5.20;2.83;;;15.90;50.30;;;;;;4977133;28;20474;-66
2021/04/09 11:15:07;;;;;;;3.90;2.97;;;15.50;51.30;;;;;;4976805;28;20451;-66
2021/04/09 11:17:34;;;;;;;4.13;2.80;;;15.50;51.50;;;;;;4976597;28;20494;-66
2021/04/09 11:20:18;;;;;;;6.00;3.50;;;15.50;51.30;;;;;;4976560;28;20462;-66
2021/04/09 11:22:45;;;;;;;3.20;2.90;;;15.40;51.10;;;;;;4976550;28;20474;-66
2021/04/09 11:25:11;;;;;;;8.63;3.30;;;15.30;52.00;;;;;;4979604;28;20459;-65
2021/04/09 11:27:41;;;;;;;3.47;2.97;;;15.20;51.30;;;;;;4984095;28;20471;-66
2021/04/09 11:30:15;;;;;;;5.80;2.90;;;15.40;52.20;;;;;;4983753;28;20431;-66
2021/04/09 11:32:44;;;;;;;6.70;3.30;;;15.50;51.80;;;;;;4982723;28;20478;-66
2021/04/09 11:35:12;;;;;;;4.63;4.07;;;15.40;51.90;;;;;;4981338;28;20439;-65
2021/04/09 11:37:43;;;;;;;4.97;3.37;;;15.10;51.30;;;;;;4980943;28;20458;-66
2021/04/09 11:40:12;;;;;;;9.67;3.63;;;15.00;51.60;;;;;;4977106;28;20451;-65
2021/04/09 11:42:38;;;;;;;3.63;3.10;;;14.90;52.20;;;;;;4976577;28;20478;-66
2021/04/09 11:45:06;;;;;;;3.10;2.80;;;15.00;51.90;;;;;;4976265;28;20458;-65
2021/04/09 11:47:35;;;;;;;4.83;2.80;;;14.90;51.90;;;;;;4975510;28;21016;-65
2021/04/09 11:50:12;;;;;;;5.27;2.97;;;15.00;52.00;;;;;;4975754;28;20454;-66
2021/04/09 11:52:50;;;;;;;4.50;3.20;;;15.00;52.60;;;;;;4975764;28;20482;-66
2021/04/09 11:55:17;;;;;;;3.87;3.40;;;15.40;53.10;;;;;;4975534;28;20461;-65
2021/04/09 11:57:43;;;;;;;3.37;3.07;;;15.60;53.20;;;;;;4975800;28;20451;-66
2021/04/09 12:00:27;;;;;;;2.67;2.47;;;15.90;52.50;;;;;;4975778;28;20458;-65
2021/04/09 12:02:57;;;;;;;3.10;2.90;;;16.20;51.70;;;;;;4975335;28;20490;-66
2021/04/09 12:05:25;;;;;;;3.10;2.80;;;16.40;52.70;;;;;;4975819;28;20462;-65
2021/04/09 12:07:52;;;;;;;3.60;3.30;;;16.50;52.10;;;;;;4975538;28;20481;-65
2021/04/09 12:10:20;;;;;;;3.83;2.70;;;16.70;51.80;;;;;;4975642;28;20454;-65
2021/04/09 12:12:46;;;;;;;3.40;3.10;;;16.80;52.30;;;;;;4975437;28;20529;-65
2021/04/09 12:15:13;;;;;;;5.30;2.87;;;16.70;51.50;;;;;;4975476;28;20513;-65
2021/04/09 12:17:40;;;;;;;7.80;3.33;;;16.80;54.00;;;;;;4974713;28;20514;-66
2021/04/09 12:20:10;;;;;;;4.07;3.67;;;17.00;54.90;;;;;;4975263;28;20922;-65
2021/04/09 12:22:37;;;;;;;5.60;2.90;;;16.90;50.20;;;;;;4975447;28;20490;-65
2021/04/09 12:25:05;;;;;;;3.17;2.87;;;16.90;52.30;;;;;;4975337;28;20926;-66
2021/04/09 12:27:31;;;;;;;8.13;3.00;;;17.00;51.30;;;;;;4975421;28;20479;-65
2021/04/09 12:29:58;;;;;;;5.37;2.80;;;17.30;53.20;;;;;;4975118;28;20459;-66
2021/04/09 12:32:24;;;;;;;2.57;2.33;;;17.50;52.90;;;;;;4975344;28;20474;-65
2021/04/09 12:34:50;;;;;;;3.57;2.50;;;17.80;53.40;;;;;;4975957;28;20454;-64
2021/04/09 12:37:17;;;;;;;4.70;3.00;;;18.10;53.80;;;;;;4975618;28;20431;-65
2021/04/09 12:39:44;;;;;;;5.33;3.30;;;18.30;53.30;;;;;;4975124;28;20442;-66
2021/04/09 12:42:11;;;;;;;2.83;2.63;;;18.40;52.20;;;;;;4974644;28;20475;-65
2021/04/09 12:44:37;;;;;;;7.23;2.90;;;18.50;52.50;;;;;;4975003;28;20458;-64
2021/04/09 12:47:04;;;;;;;2.70;2.50;;;18.50;50.70;;;;;;4975836;28;20442;-65
2021/04/09 12:49:30;;;;;;;6.40;2.90;;;18.20;50.70;;;;;;4977180;28;20443;-65
2021/04/09 12:51:56;;;;;;;2.80;2.60;;;18.40;55.10;;;;;;4975005;28;20518;-65
2021/04/09 12:54:23;;;;;;;7.07;2.77;;;18.60;54.90;;;;;;4974979;28;20454;-66
2021/04/09 12:56:50;;;;;;;3.97;2.60;;;19.20;55.00;;;;;;4974821;28;20509;-65